createdAt,value
2022-08-25T00:01:32.303Z,12.47
2022-08-25T00:04:00.123Z,9.90
2022-08-25T00:06:28.658Z,10.37
2022-08-25T00:08:59.438Z,11.30
2022-08-25T00:11:28.265Z,11.83
2022-08-25T00:13:56.639Z,10.63
2022-08-25T00:16:24.108Z,11.87
2022-08-25T00:18:53.241Z,9.93
2022-08-25T00:21:21.366Z,11.77
2022-08-25T00:23:48.245Z,9.80
2022-08-25T00:26:15.784Z,13.33
2022-08-25T00:28:43.117Z,10.80
2022-08-25T00:31:14.648Z,10.63
2022-08-25T00:33:41.855Z,9.93
2022-08-25T00:36:10.662Z,9.97
2022-08-25T00:38:38.062Z,10.27
2022-08-25T00:41:08.046Z,10.00
2022-08-25T00:43:40.886Z,9.90
2022-08-25T00:46:08.627Z,10.57
2022-08-25T00:48:35.964Z,10.87
2022-08-25T00:51:03.147Z,10.10
2022-08-25T00:53:30.744Z,11.07
2022-08-25T00:55:58.895Z,11.87
2022-08-25T00:58:27.303Z,10.10
2022-08-25T01:00:55.637Z,10.77
2022-08-25T01:03:25.262Z,10.97
2022-08-25T01:06:01.794Z,9.77
2022-08-25T01:08:29.767Z,10.63
2022-08-25T01:11:01.746Z,11.17
2022-08-25T01:13:40.312Z,10.97
2022-08-25T01:16:07.249Z,10.93
2022-08-25T01:18:52.806Z,10.70
2022-08-25T01:21:20.802Z,10.53
2022-08-25T01:23:48.484Z,11.13
2022-08-25T01:26:30.576Z,11.00
2022-08-25T01:29:17.781Z,10.23
2022-08-25T01:31:45.045Z,10.10
2022-08-25T01:34:12.384Z,12.17
2022-08-25T01:36:39.904Z,11.47
2022-08-25T01:39:06.834Z,11.03
2022-08-25T01:41:36.605Z,10.43
2022-08-25T01:44:05.808Z,11.37
2022-08-25T01:46:35.738Z,11.07
2022-08-25T01:49:06.672Z,11.67
2022-08-25T01:51:38.226Z,11.87
2022-08-25T01:54:05.230Z,14.13
2022-08-25T01:56:32.097Z,12.40
2022-08-25T01:58:58.895Z,12.67
2022-08-25T02:01:26.364Z,12.43
2022-08-25T02:03:54.047Z,11.60
2022-08-25T02:06:29.921Z,11.30
2022-08-25T02:08:58.499Z,12.00
2022-08-25T02:11:25.739Z,11.03
2022-08-25T02:13:59.229Z,13.50
2022-08-25T02:16:28.312Z,11.23
2022-08-25T02:18:55.982Z,12.50
2022-08-25T02:21:23.053Z,11.63
2022-08-25T02:23:51.014Z,13.03
2022-08-25T02:26:19.030Z,11.60
2022-08-25T02:28:49.624Z,11.90
2022-08-25T02:31:17.796Z,12.00
2022-08-25T02:33:45.062Z,11.60
2022-08-25T02:36:12.496Z,11.30
2022-08-25T02:38:40.623Z,12.70
2022-08-25T02:41:14.688Z,12.43
2022-08-25T02:43:42.137Z,12.17
2022-08-25T02:46:09.779Z,12.50
2022-08-25T02:48:37.361Z,12.63
2022-08-25T02:51:06.639Z,12.30
2022-08-25T02:53:33.841Z,12.63
2022-08-25T02:56:00.820Z,12.33
2022-08-25T02:58:29.084Z,12.53
2022-08-25T03:00:56.622Z,12.20
2022-08-25T03:03:23.743Z,12.77
2022-08-25T03:05:50.916Z,12.10
2022-08-25T03:08:17.911Z,12.37
2022-08-25T03:10:44.816Z,12.93
2022-08-25T03:13:11.679Z,12.37
2022-08-25T03:15:38.710Z,13.70
2022-08-25T03:18:06.539Z,12.47
2022-08-25T03:20:35.645Z,12.73
2022-08-25T03:23:03.122Z,12.30
2022-08-25T03:25:48.689Z,13.10
2022-08-25T03:28:15.823Z,14.27
2022-08-25T03:30:42.695Z,13.37
2022-08-25T03:33:09.519Z,12.47
2022-08-25T03:35:36.773Z,12.77
2022-08-25T03:38:04.241Z,13.50
2022-08-25T03:40:31.346Z,12.80
2022-08-25T03:43:00.953Z,13.23
2022-08-25T03:45:27.827Z,12.97
2022-08-25T03:47:54.588Z,12.73
2022-08-25T03:50:22.028Z,13.47
2022-08-25T03:52:56.207Z,13.23
2022-08-25T03:55:23.949Z,12.50
2022-08-25T03:57:51.643Z,13.50
2022-08-25T04:00:19.205Z,13.83
2022-08-25T04:02:46.131Z,13.10
2022-08-25T04:05:13.249Z,13.87
2022-08-25T04:07:45.475Z,14.30
2022-08-25T04:10:12.498Z,15.00
2022-08-25T04:12:39.444Z,14.50
2022-08-25T04:15:09.618Z,14.20
2022-08-25T04:17:37.480Z,14.23
2022-08-25T04:20:04.703Z,13.10
2022-08-25T04:22:31.905Z,13.80
2022-08-25T04:25:04.430Z,14.33
2022-08-25T04:27:32.374Z,13.80
2022-08-25T04:29:59.647Z,15.07
2022-08-25T04:32:29.574Z,14.67
2022-08-25T04:34:56.718Z,15.00
2022-08-25T04:37:23.875Z,14.40
2022-08-25T04:39:50.762Z,13.13
2022-08-25T04:42:17.672Z,14.27
2022-08-25T04:44:45.538Z,14.57
2022-08-25T04:47:12.301Z,14.03
2022-08-25T04:49:39.626Z,14.97
2022-08-25T04:52:06.427Z,15.07
2022-08-25T04:54:40.310Z,16.63
2022-08-25T04:57:07.171Z,15.03
2022-08-25T04:59:34.095Z,14.43
2022-08-25T05:02:05.517Z,15.40
2022-08-25T05:04:33.536Z,14.90
2022-08-25T05:07:00.838Z,16.43
2022-08-25T05:09:28.213Z,13.60
2022-08-25T05:11:55.197Z,16.00
2022-08-25T05:14:26.220Z,13.30
2022-08-25T05:16:54.241Z,12.17
2022-08-25T05:19:21.120Z,13.77
2022-08-25T05:21:47.949Z,12.47
2022-08-25T05:24:14.915Z,12.43
2022-08-25T05:26:43.518Z,12.37
2022-08-25T05:29:11.663Z,13.03
2022-08-25T05:31:42.310Z,12.23
2022-08-25T05:34:10.135Z,11.13
2022-08-25T05:36:38.410Z,11.43
2022-08-25T05:39:05.352Z,12.50
2022-08-25T05:41:33.389Z,12.30
2022-08-25T05:44:00.169Z,13.63
2022-08-25T05:46:27.324Z,12.47
2022-08-25T05:48:58.926Z,12.57
2022-08-25T05:51:26.238Z,12.70
2022-08-25T05:53:53.429Z,12.97
2022-08-25T05:56:20.311Z,13.90
2022-08-25T05:58:47.549Z,13.13
2022-08-25T06:01:59.376Z,13.17
2022-08-25T06:04:26.221Z,12.90
2022-08-25T06:06:54.791Z,14.10
2022-08-25T06:09:22.164Z,13.47
2022-08-25T06:11:54.081Z,14.27
2022-08-25T06:14:22.570Z,12.13
2022-08-25T06:16:51.471Z,13.03
2022-08-25T06:19:18.331Z,14.57
2022-08-25T06:21:45.185Z,12.57
2022-08-25T06:24:15.368Z,12.33
2022-08-25T06:26:42.520Z,13.43
2022-08-25T06:29:09.340Z,12.07
2022-08-25T06:31:36.552Z,12.53
2022-08-25T06:34:04.260Z,13.30
2022-08-25T06:36:31.025Z,11.97
2022-08-25T06:38:57.969Z,12.13
2022-08-25T06:41:25.582Z,13.87
2022-08-25T06:44:05.160Z,12.00
2022-08-25T06:46:36.153Z,11.83
2022-08-25T06:49:04.867Z,11.10
2022-08-25T06:51:31.704Z,12.07
2022-08-25T06:53:58.602Z,12.17
2022-08-25T06:56:25.736Z,11.23
2022-08-25T06:58:53.781Z,11.60
2022-08-25T07:01:26.891Z,11.87
2022-08-25T07:03:55.009Z,11.70
2022-08-25T07:06:23.079Z,12.37
2022-08-25T07:08:49.936Z,12.17
2022-08-25T07:11:18.012Z,11.27
2022-08-25T07:13:45.341Z,14.10
2022-08-25T07:16:12.634Z,12.23
2022-08-25T07:18:39.554Z,11.80
2022-08-25T07:21:09.132Z,12.20
2022-08-25T07:23:37.130Z,12.07
2022-08-25T07:26:15.855Z,10.77
2022-08-25T07:28:55.789Z,12.80
2022-08-25T07:31:22.916Z,10.87
2022-08-25T07:34:18.727Z,11.40
2022-08-25T07:36:45.672Z,11.70
2022-08-25T07:39:12.487Z,11.73
2022-08-25T07:41:40.737Z,12.10
2022-08-25T07:44:08.869Z,11.53
2022-08-25T07:46:35.779Z,10.13
2022-08-25T07:49:02.985Z,11.00
2022-08-25T07:51:29.804Z,11.47
2022-08-25T07:53:56.941Z,12.27
2022-08-25T07:56:24.444Z,11.03
2022-08-25T07:58:51.267Z,11.30
2022-08-25T08:01:31.346Z,11.07
2022-08-25T08:04:01.603Z,10.63
2022-08-25T08:06:30.582Z,9.53
2022-08-25T08:08:57.998Z,10.90
2022-08-25T08:11:30.950Z,10.23
2022-08-25T08:13:58.209Z,10.03
2022-08-25T08:16:25.912Z,10.63
2022-08-25T08:18:52.919Z,10.33
2022-08-25T08:21:30.081Z,11.33
2022-08-25T08:23:59.430Z,11.63
2022-08-25T08:26:36.480Z,11.07
2022-08-25T08:29:16.271Z,10.03
2022-08-25T08:31:49.084Z,10.57
2022-08-25T08:34:16.333Z,10.63
2022-08-25T08:36:43.156Z,9.77
2022-08-25T08:39:12.240Z,9.80
2022-08-25T08:42:17.162Z,10.63
2022-08-25T08:44:44.121Z,9.93
2022-08-25T08:47:30.157Z,9.50
2022-08-25T08:50:03.985Z,9.57
2022-08-25T08:52:44.159Z,9.83
2022-08-25T08:55:15.734Z,10.43
2022-08-25T08:57:44.941Z,10.23
2022-08-25T09:00:14.441Z,9.40
2022-08-25T09:03:01.699Z,8.53
2022-08-25T09:05:41.006Z,9.67
2022-08-25T09:08:12.411Z,8.83
2022-08-25T09:10:58.858Z,8.03
2022-08-25T09:13:38.444Z,7.90
2022-08-25T09:16:34.894Z,8.67
2022-08-25T09:19:12.965Z,8.27
2022-08-25T09:22:02.434Z,8.97
2022-08-25T09:24:52.267Z,7.77
2022-08-25T09:27:28.185Z,8.30
2022-08-25T09:30:04.576Z,7.97
2022-08-25T09:32:35.159Z,7.75
2022-08-25T09:35:03.404Z,7.57
2022-08-25T09:37:30.540Z,7.55
2022-08-25T09:39:59.295Z,9.40
2022-08-25T09:42:44.957Z,8.15
2022-08-25T09:45:13.828Z,7.77
2022-08-25T09:47:43.252Z,8.52
2022-08-25T09:50:18.442Z,8.90
2022-08-25T09:52:45.828Z,8.30
2022-08-25T09:55:13.673Z,8.57
2022-08-25T09:57:44.567Z,8.93
2022-08-25T10:00:14.479Z,8.77
2022-08-25T10:02:42.691Z,9.00
2022-08-25T10:05:24.308Z,9.20
2022-08-25T10:07:59.104Z,10.98
2022-08-25T10:10:32.527Z,8.20
2022-08-25T10:13:01.024Z,9.40
2022-08-25T10:15:36.005Z,8.98
2022-08-25T10:18:15.286Z,9.45
2022-08-25T10:20:44.508Z,8.50
2022-08-25T10:23:14.229Z,9.10
2022-08-25T10:25:59.095Z,8.55
2022-08-25T10:28:31.567Z,8.93
2022-08-25T10:31:16.560Z,8.75
2022-08-25T10:33:57.224Z,8.93
2022-08-25T10:36:26.976Z,8.80
2022-08-25T10:38:57.795Z,8.60
2022-08-25T10:41:37.141Z,9.25
2022-08-25T10:44:07.002Z,9.13
2022-08-25T10:46:43.213Z,9.00
2022-08-25T10:49:30.250Z,9.13
2022-08-25T10:52:01.193Z,8.45
2022-08-25T10:54:34.195Z,9.07
2022-08-25T10:57:04.499Z,8.48
2022-08-25T10:59:43.924Z,8.77
2022-08-25T11:02:24.145Z,9.55
2022-08-25T11:04:56.957Z,8.57
2022-08-25T11:07:28.643Z,8.93
2022-08-25T11:09:58.941Z,8.25
2022-08-25T11:12:31.079Z,9.15
2022-08-25T11:15:00.178Z,9.48
2022-08-25T11:17:41.935Z,8.85
2022-08-25T11:20:19.927Z,8.95
2022-08-25T11:23:08.067Z,8.35
2022-08-25T11:25:42.953Z,9.02
2022-08-25T11:28:12.839Z,8.50
2022-08-25T11:30:40.359Z,8.73
2022-08-25T11:33:11.686Z,8.20
2022-08-25T11:35:45.301Z,9.40
2022-08-25T11:38:18.519Z,9.20
2022-08-25T11:41:11.182Z,8.87
2022-08-25T11:43:54.289Z,8.43
2022-08-25T11:46:21.574Z,8.83
2022-08-25T11:49:22.638Z,8.47
2022-08-25T11:51:50.520Z,8.77
2022-08-25T11:54:29.633Z,8.33
2022-08-25T11:56:56.462Z,8.80
2022-08-25T11:59:43.460Z,8.67
2022-08-25T12:02:27.578Z,7.23
2022-08-25T12:04:55.407Z,8.00
2022-08-25T12:07:23.873Z,9.38
2022-08-25T12:09:50.948Z,7.72
2022-08-25T12:12:29.399Z,8.43
2022-08-25T12:15:14.289Z,8.30
2022-08-25T12:17:41.163Z,8.17
2022-08-25T12:20:11.532Z,8.30
2022-08-25T12:22:40.643Z,8.00
2022-08-25T12:25:33.979Z,8.70
2022-08-25T12:28:30.277Z,7.67
2022-08-25T12:31:06.600Z,9.13
2022-08-25T12:33:36.321Z,7.73
2022-08-25T12:36:04.991Z,7.67
2022-08-25T12:38:32.148Z,9.63
2022-08-25T12:41:24.648Z,7.07
2022-08-25T12:43:52.936Z,6.93
2022-08-25T12:46:19.818Z,8.87
2022-08-25T12:48:55.915Z,7.80
2022-08-25T12:51:27.388Z,7.83
2022-08-25T12:54:16.044Z,7.32
2022-08-25T12:56:47.918Z,7.25
2022-08-25T12:59:16.634Z,6.93
2022-08-25T13:01:57.545Z,6.57
2022-08-25T13:04:24.541Z,7.90
2022-08-25T13:07:17.320Z,8.50
2022-08-25T13:09:44.317Z,8.80
2022-08-25T13:12:17.082Z,8.18
2022-08-25T13:14:44.794Z,8.32
2022-08-25T13:17:11.850Z,8.52
2022-08-25T13:19:38.675Z,8.65
2022-08-25T13:22:17.660Z,8.90
2022-08-25T13:24:47.677Z,8.00
2022-08-25T13:27:26.477Z,9.57
2022-08-25T13:29:59.895Z,7.60
2022-08-25T13:32:35.384Z,8.80
2022-08-25T13:35:17.536Z,9.07
2022-08-25T13:37:46.961Z,8.73
2022-08-25T13:40:17.815Z,8.30
2022-08-25T13:42:55.865Z,9.18
2022-08-25T13:45:28.276Z,8.15
2022-08-25T13:47:56.266Z,7.37
2022-08-25T13:50:26.331Z,8.83
2022-08-25T13:52:53.488Z,7.83
2022-08-25T13:55:27.348Z,9.73
2022-08-25T13:57:56.808Z,7.17
2022-08-25T14:00:47.390Z,7.80
2022-08-25T14:03:35.798Z,7.60
2022-08-25T14:06:15.240Z,7.77
2022-08-25T14:09:08.375Z,7.77
2022-08-25T14:11:43.879Z,8.77
2022-08-25T14:14:13.362Z,6.83
2022-08-25T14:16:40.559Z,7.10
2022-08-25T14:19:19.362Z,7.13
2022-08-25T14:21:47.347Z,9.23
2022-08-25T14:24:17.502Z,7.60
2022-08-25T14:26:54.521Z,7.30
2022-08-25T14:29:22.146Z,6.97
2022-08-25T14:31:49.334Z,6.90
2022-08-25T14:34:21.471Z,7.93
2022-08-25T14:36:49.057Z,8.17
2022-08-25T14:39:16.263Z,8.80
2022-08-25T14:41:45.333Z,7.90
2022-08-25T14:44:20.374Z,9.97
2022-08-25T14:46:51.857Z,6.67
2022-08-25T14:49:24.639Z,7.87
2022-08-25T14:51:51.975Z,7.40
2022-08-25T14:54:22.896Z,7.27
2022-08-25T14:56:50.699Z,6.27
2022-08-25T14:59:18.451Z,7.53
2022-08-25T15:01:45.800Z,6.47
2022-08-25T15:04:18.844Z,9.87
2022-08-25T15:06:46.654Z,6.40
2022-08-25T15:09:16.295Z,7.87
2022-08-25T15:11:45.962Z,7.07
2022-08-25T15:14:15.698Z,6.57
2022-08-25T15:16:45.902Z,8.23
2022-08-25T15:19:16.728Z,6.80
2022-08-25T15:21:44.294Z,7.87
2022-08-25T15:24:11.930Z,8.37
2022-08-25T15:27:02.132Z,9.50
2022-08-25T15:29:30.441Z,6.80
2022-08-25T15:31:58.476Z,6.60
2022-08-25T15:34:25.420Z,7.00
2022-08-25T15:36:52.343Z,8.20
2022-08-25T15:39:19.686Z,8.13
2022-08-25T15:41:49.223Z,7.77
2022-08-25T15:44:16.380Z,7.63
2022-08-25T15:46:47.117Z,7.10
2022-08-25T15:49:20.809Z,7.33
2022-08-25T15:51:52.262Z,7.27
2022-08-25T15:54:20.077Z,8.23
2022-08-25T15:56:47.142Z,7.87
2022-08-25T15:59:14.462Z,7.60
2022-08-25T16:01:41.656Z,7.23
2022-08-25T16:04:08.635Z,6.90
2022-08-25T16:06:37.156Z,6.77
2022-08-25T16:09:04.698Z,8.07
2022-08-25T16:11:34.859Z,7.43
2022-08-25T16:14:02.190Z,9.80
2022-08-25T16:16:29.786Z,7.20
2022-08-25T16:18:57.511Z,7.50
2022-08-25T16:21:29.048Z,7.63
2022-08-25T16:24:01.246Z,7.53
2022-08-25T16:26:30.588Z,6.90
2022-08-25T16:28:57.627Z,7.03
2022-08-25T16:31:25.211Z,7.90
2022-08-25T16:33:54.788Z,6.90
2022-08-25T16:36:25.148Z,6.93
2022-08-25T16:38:54.623Z,7.17
2022-08-25T16:41:22.566Z,7.30
2022-08-25T16:43:50.348Z,8.80
2022-08-25T16:46:19.569Z,8.33
2022-08-25T16:48:46.543Z,8.20
2022-08-25T16:51:15.110Z,9.37
2022-08-25T16:54:00.718Z,9.77
2022-08-25T16:56:32.668Z,7.47
2022-08-25T16:59:00.526Z,8.27
2022-08-25T17:01:28.071Z,8.73
2022-08-25T17:03:57.532Z,10.27
2022-08-25T17:06:25.210Z,9.50
2022-08-25T17:08:52.584Z,7.60
2022-08-25T17:11:24.366Z,8.37
2022-08-25T17:13:52.425Z,7.80
2022-08-25T17:16:21.008Z,7.40
2022-08-25T17:18:48.286Z,7.80
2022-08-25T17:21:23.830Z,7.93
2022-08-25T17:23:52.911Z,7.60
2022-08-25T17:26:20.107Z,8.00
2022-08-25T17:28:56.024Z,8.10
2022-08-25T17:31:23.866Z,9.17
2022-08-25T17:33:52.357Z,7.33
2022-08-25T17:36:19.343Z,8.70
2022-08-25T17:38:46.128Z,10.33
2022-08-25T17:41:14.098Z,9.83
2022-08-25T17:43:41.699Z,7.97
2022-08-25T17:46:09.458Z,7.93
2022-08-25T17:48:37.891Z,8.37
2022-08-25T17:51:10.576Z,9.80
2022-08-25T17:53:38.502Z,9.33
2022-08-25T17:56:07.223Z,7.87
2022-08-25T17:58:34.881Z,8.03
2022-08-25T18:01:02.952Z,8.20
2022-08-25T18:03:29.787Z,7.47
2022-08-25T18:05:56.839Z,7.57
2022-08-25T18:08:29.260Z,7.47
2022-08-25T18:11:04.202Z,8.70
2022-08-25T18:13:31.603Z,7.83
2022-08-25T18:15:58.992Z,10.37
2022-08-25T18:18:25.886Z,7.43
2022-08-25T18:20:53.172Z,7.97
2022-08-25T18:23:20.042Z,8.20
2022-08-25T18:25:48.273Z,8.07
2022-08-25T18:28:15.305Z,9.53
2022-08-25T18:30:42.393Z,8.73
2022-08-25T18:33:09.673Z,10.73
2022-08-25T18:35:36.551Z,7.80
2022-08-25T18:38:24.335Z,11.50
2022-08-25T18:41:02.797Z,7.70
2022-08-25T18:43:31.309Z,10.80
2022-08-25T18:46:01.573Z,10.07
2022-08-25T18:48:30.956Z,10.17
2022-08-25T18:50:57.851Z,10.20
2022-08-25T18:53:30.448Z,8.63
2022-08-25T18:56:05.132Z,16.97
2022-08-25T18:58:31.923Z,9.50
2022-08-25T19:01:00.781Z,12.50
2022-08-25T19:03:27.902Z,8.90
2022-08-25T19:05:57.547Z,14.07
2022-08-25T19:08:25.019Z,11.13
2022-08-25T19:10:53.231Z,12.50
2022-08-25T19:13:22.689Z,9.93
2022-08-25T19:15:51.254Z,12.50
2022-08-25T19:18:19.051Z,9.83
2022-08-25T19:20:53.355Z,11.18
2022-08-25T19:23:20.235Z,11.00
2022-08-25T19:25:47.181Z,9.90
2022-08-25T19:28:14.231Z,8.57
2022-08-25T19:30:49.891Z,13.07
2022-08-25T19:33:43.867Z,8.97
2022-08-25T19:36:06.357Z,10.47
2022-08-25T19:38:36.532Z,13.93
2022-08-25T19:41:10.466Z,13.57
2022-08-25T19:43:50.656Z,11.17
2022-08-25T19:46:32.963Z,9.87
2022-08-25T19:49:07.723Z,11.10
2022-08-25T19:51:39.341Z,11.30
2022-08-25T19:54:09.235Z,10.60
2022-08-25T19:56:38.550Z,10.17
2022-08-25T19:59:21.710Z,9.47
2022-08-25T20:01:50.342Z,11.27
2022-08-25T20:04:17.791Z,9.53
2022-08-25T20:06:48.405Z,11.17
2022-08-25T20:09:36.034Z,10.77
2022-08-25T20:12:04.920Z,9.07
2022-08-25T20:14:33.898Z,14.17
2022-08-25T20:17:02.465Z,8.23
2022-08-25T20:19:31.076Z,11.83
2022-08-25T20:21:58.885Z,11.47
2022-08-25T20:24:45.159Z,14.83
2022-08-25T20:27:12.399Z,12.00
2022-08-25T20:29:39.294Z,10.27
2022-08-25T20:32:11.676Z,11.47
2022-08-25T20:34:39.350Z,11.20
2022-08-25T20:37:06.733Z,11.77
2022-08-25T20:39:34.026Z,11.27
2022-08-25T20:42:02.623Z,11.07
2022-08-25T20:44:33.736Z,13.47
2022-08-25T20:47:05.170Z,9.73
2022-08-25T20:49:37.850Z,10.00
2022-08-25T20:52:05.386Z,11.97
2022-08-25T20:54:32.642Z,11.33
2022-08-25T20:56:59.505Z,15.33
2022-08-25T20:59:27.180Z,12.20
2022-08-25T21:01:54.737Z,10.63
2022-08-25T21:04:22.434Z,11.90
2022-08-25T21:06:51.039Z,13.53
2022-08-25T21:09:20.326Z,12.03
2022-08-25T21:11:48.276Z,11.87
2022-08-25T21:14:16.686Z,12.23
2022-08-25T21:16:46.998Z,14.00
2022-08-25T21:19:14.987Z,11.53
2022-08-25T21:21:42.829Z,13.93
2022-08-25T21:24:10.546Z,10.47
2022-08-25T21:26:48.580Z,12.77
2022-08-25T21:29:16.690Z,13.47
2022-08-25T21:31:43.643Z,11.80
2022-08-25T21:34:11.143Z,16.57
2022-08-25T21:36:38.760Z,10.47
2022-08-25T21:39:05.904Z,13.70
2022-08-25T21:41:34.155Z,14.70
2022-08-25T21:44:04.451Z,11.53
2022-08-25T21:46:32.231Z,19.03
2022-08-25T21:49:00.607Z,11.47
2022-08-25T21:51:40.509Z,16.23
2022-08-25T21:54:09.539Z,16.30
2022-08-25T21:56:41.183Z,11.87
2022-08-25T21:59:14.003Z,14.17
2022-08-25T22:01:41.406Z,12.90
2022-08-25T22:04:08.645Z,15.97
2022-08-25T22:06:35.927Z,11.77
2022-08-25T22:09:03.750Z,12.50
2022-08-25T22:11:31.940Z,14.40
2022-08-25T22:14:03.482Z,14.77
2022-08-25T22:16:31.999Z,14.47
2022-08-25T22:18:59.493Z,14.27
2022-08-25T22:21:27.951Z,15.67
2022-08-25T22:23:58.407Z,13.13
2022-08-25T22:26:27.764Z,12.23
2022-08-25T22:28:55.330Z,15.53
2022-08-25T22:31:22.390Z,11.33
2022-08-25T22:33:50.269Z,13.60
2022-08-25T22:36:27.820Z,13.43
2022-08-25T22:38:55.805Z,14.67
2022-08-25T22:41:23.309Z,15.20
2022-08-25T22:43:53.001Z,14.43
2022-08-25T22:46:21.554Z,13.53
2022-08-25T22:48:50.324Z,15.47
2022-08-25T22:51:19.656Z,16.17
2022-08-25T22:53:47.259Z,11.10
2022-08-25T22:56:17.211Z,14.07
2022-08-25T22:58:51.786Z,15.07
2022-08-25T23:01:19.682Z,13.97
2022-08-25T23:03:47.575Z,13.67
2022-08-25T23:06:19.642Z,11.27
2022-08-25T23:08:50.065Z,16.13
2022-08-25T23:11:18.075Z,12.97
2022-08-25T23:13:46.117Z,17.20
2022-08-25T23:16:13.294Z,13.87
2022-08-25T23:18:43.787Z,12.50
2022-08-25T23:21:30.088Z,14.83
2022-08-25T23:24:02.268Z,16.30
2022-08-25T23:26:29.404Z,11.83
2022-08-25T23:28:56.386Z,14.53
2022-08-25T23:31:23.679Z,13.80
2022-08-25T23:33:51.367Z,15.57
2022-08-25T23:36:19.503Z,12.77
2022-08-25T23:38:51.559Z,12.07
2022-08-25T23:41:20.303Z,14.00
2022-08-25T23:43:47.880Z,14.67
2022-08-25T23:46:17.391Z,11.80
2022-08-25T23:48:44.697Z,13.60
2022-08-25T23:51:12.512Z,14.13
2022-08-25T23:53:39.387Z,14.57
2022-08-25T23:56:06.408Z,12.57
2022-08-25T23:58:33.269Z,15.63
